createdAt,value
2023-04-18T00:00:05.111Z,154.39
2023-04-18T00:01:05.150Z,153.81
2023-04-18T00:02:05.307Z,154.80
2023-04-18T00:03:05.464Z,152.88
2023-04-18T00:04:05.603Z,151.50
2023-04-18T00:05:05.391Z,152.52
2023-04-18T00:06:05.292Z,152.82
2023-04-18T00:07:05.363Z,152.26
2023-04-18T00:08:05.423Z,155.38
2023-04-18T00:09:05.465Z,152.16
2023-04-18T00:10:05.478Z,151.38
2023-04-18T00:11:05.517Z,154.54
2023-04-18T00:12:05.576Z,152.32
2023-04-18T00:13:05.672Z,150.10
2023-04-18T00:14:05.614Z,154.43
2023-04-18T00:15:05.671Z,154.51
2023-04-18T00:16:05.732Z,154.09
2023-04-18T00:17:05.760Z,155.26
2023-04-18T00:18:05.909Z,150.50
2023-04-18T00:19:05.839Z,153.87
2023-04-18T00:20:05.860Z,153.47
2023-04-18T00:21:05.890Z,154.33
2023-04-18T00:22:05.928Z,153.45
2023-04-18T00:23:05.977Z,155.23
2023-04-18T00:24:06.035Z,153.25
2023-04-18T00:25:06.066Z,154.14
2023-04-18T00:26:06.161Z,149.06
2023-04-18T00:27:06.219Z,151.81
2023-04-18T00:28:06.213Z,154.40
2023-04-18T00:29:06.223Z,154.20
2023-04-18T00:30:06.315Z,154.31
2023-04-18T00:31:06.414Z,149.57
2023-04-18T00:32:06.398Z,153.43
2023-04-18T00:33:06.513Z,150.47
2023-04-18T00:34:06.462Z,151.91
2023-04-18T00:35:06.512Z,153.51
2023-04-18T00:36:06.578Z,154.28
2023-04-18T00:37:06.586Z,150.88
2023-04-18T00:38:06.627Z,152.66
2023-04-18T00:39:06.663Z,150.40
2023-04-18T00:40:06.755Z,151.03
2023-04-18T00:41:06.795Z,151.60
2023-04-18T00:42:06.835Z,152.70
2023-04-18T00:43:06.875Z,152.83
2023-04-18T00:44:06.949Z,150.96
2023-04-18T00:45:06.948Z,151.12
2023-04-18T00:46:07.040Z,152.53
2023-04-18T00:47:07.068Z,150.11
2023-04-18T00:48:07.139Z,154.22
2023-04-18T00:49:07.200Z,150.48
2023-04-18T00:50:07.190Z,152.98
2023-04-18T00:51:07.253Z,150.17
2023-04-18T00:52:07.264Z,148.96
2023-04-18T00:53:07.304Z,150.18
2023-04-18T00:54:07.356Z,150.19
2023-04-18T00:55:07.561Z,151.54
2023-04-18T00:56:07.447Z,152.58
2023-04-18T00:57:07.483Z,148.54
2023-04-18T00:58:07.506Z,148.31
2023-04-18T00:59:07.643Z,150.26
2023-04-18T01:00:07.626Z,152.19
2023-04-18T01:01:07.712Z,152.99
2023-04-18T01:02:07.760Z,150.75
2023-04-18T01:03:07.901Z,151.88
2023-04-18T01:04:07.939Z,154.00
2023-04-18T01:05:07.958Z,152.02
2023-04-18T01:06:07.876Z,152.75
2023-04-18T01:07:07.943Z,152.80
2023-04-18T01:08:08.028Z,150.70
2023-04-18T01:09:08.080Z,154.24
2023-04-18T01:10:08.085Z,146.94
2023-04-18T01:11:08.140Z,150.31
2023-04-18T01:12:08.186Z,147.02
2023-04-18T01:13:08.230Z,150.13
2023-04-18T01:14:08.404Z,151.27
2023-04-18T01:15:08.330Z,150.66
2023-04-18T01:16:08.408Z,152.73
2023-04-18T01:17:08.454Z,150.60
2023-04-18T01:18:08.441Z,150.30
2023-04-18T01:19:08.507Z,148.80
2023-04-18T01:20:08.557Z,149.78
2023-04-18T01:21:08.553Z,151.76
2023-04-18T01:22:08.608Z,149.45
2023-04-18T01:23:08.669Z,151.78
2023-04-18T01:24:08.709Z,150.18
2023-04-18T01:25:08.724Z,151.31
2023-04-18T01:26:08.787Z,151.87
2023-04-18T01:27:08.819Z,148.07
2023-04-18T01:28:08.912Z,148.49
2023-04-18T01:29:08.912Z,150.56
2023-04-18T01:30:08.992Z,151.97
2023-04-18T01:31:09.143Z,148.70
2023-04-18T01:32:09.076Z,150.86
2023-04-18T01:33:09.081Z,151.31
2023-04-18T01:34:09.194Z,149.61
2023-04-18T01:35:09.192Z,151.32
2023-04-18T01:36:09.225Z,146.12
2023-04-18T01:37:09.302Z,151.25
2023-04-18T01:38:09.358Z,150.32
2023-04-18T01:39:09.381Z,148.58
2023-04-18T01:40:09.473Z,150.82
2023-04-18T01:41:09.550Z,146.15
2023-04-18T01:42:09.543Z,145.88
2023-04-18T01:43:09.594Z,149.72
2023-04-18T01:44:09.654Z,149.60
2023-04-18T01:45:09.689Z,148.25
2023-04-18T01:46:09.719Z,147.47
2023-04-18T01:47:09.797Z,148.55
2023-04-18T01:48:09.941Z,148.70
2023-04-18T01:49:09.902Z,145.75
2023-04-18T01:50:09.921Z,150.75
2023-04-18T01:51:10.014Z,148.48
2023-04-18T01:52:10.037Z,149.58
2023-04-18T01:53:10.075Z,150.92
2023-04-18T01:54:10.137Z,149.01
2023-04-18T01:55:10.191Z,149.79
2023-04-18T01:56:10.293Z,148.58
2023-04-18T01:57:10.282Z,150.01
2023-04-18T01:58:10.320Z,147.87
2023-04-18T01:59:10.356Z,146.69
2023-04-18T02:00:10.421Z,149.92
2023-04-18T02:01:10.564Z,148.63
2023-04-18T02:02:10.545Z,149.91
2023-04-18T02:03:10.734Z,149.49
2023-04-18T02:04:10.660Z,150.35
2023-04-18T02:05:10.637Z,145.90
2023-04-18T02:06:10.667Z,148.45
2023-04-18T02:07:10.785Z,148.53
2023-04-18T02:08:10.804Z,146.48
2023-04-18T02:09:10.819Z,149.16
2023-04-18T02:10:10.909Z,150.85
2023-04-18T02:11:10.940Z,149.36
2023-04-18T02:12:10.979Z,146.85
2023-04-18T02:13:11.136Z,146.75
2023-04-18T02:14:11.116Z,149.10
2023-04-18T02:15:11.152Z,149.03
2023-04-18T02:16:11.248Z,150.34
2023-04-18T02:17:11.261Z,148.96
2023-04-18T02:18:11.261Z,146.94
2023-04-18T02:19:11.357Z,149.44
2023-04-18T02:20:11.413Z,146.35
2023-04-18T02:21:11.450Z,148.01
2023-04-18T02:22:11.468Z,149.13
2023-04-18T02:23:11.492Z,147.53
2023-04-18T02:24:11.872Z,147.58
2023-04-18T02:25:11.697Z,148.86
2023-04-18T02:26:11.682Z,146.45
2023-04-18T02:27:11.722Z,145.99
2023-04-18T02:28:11.771Z,146.80
2023-04-18T02:29:11.855Z,147.53
2023-04-18T02:30:11.865Z,149.83
2023-04-18T02:31:11.932Z,148.15
2023-04-18T02:32:12.156Z,146.44
2023-04-18T02:33:12.065Z,148.21
2023-04-18T02:34:12.262Z,148.04
2023-04-18T02:35:12.133Z,147.90
2023-04-18T02:36:12.197Z,147.63
2023-04-18T02:37:12.260Z,147.86
2023-04-18T02:38:12.276Z,148.14
2023-04-18T02:39:12.355Z,146.30
2023-04-18T02:40:12.434Z,148.42
2023-04-18T02:41:12.448Z,147.49
2023-04-18T02:42:12.493Z,146.30
2023-04-18T02:43:12.523Z,150.00
2023-04-18T02:44:12.880Z,146.37
2023-04-18T02:45:12.654Z,144.74
2023-04-18T02:46:12.744Z,150.39
2023-04-18T02:47:12.717Z,146.77
2023-04-18T02:48:12.784Z,148.43
2023-04-18T02:49:12.857Z,148.59
2023-04-18T02:50:12.910Z,146.36
2023-04-18T02:51:12.949Z,150.18
2023-04-18T02:52:12.996Z,148.17
2023-04-18T02:53:13.047Z,147.71
2023-04-18T02:54:13.359Z,147.96
2023-04-18T02:55:13.145Z,148.73
2023-04-18T02:56:13.218Z,146.95
2023-04-18T02:57:13.256Z,144.22
2023-04-18T02:58:13.307Z,146.79
2023-04-18T02:59:13.361Z,146.34
2023-04-18T03:00:13.572Z,146.90
2023-04-18T03:01:13.476Z,146.20
2023-04-18T03:02:13.559Z,145.76
2023-04-18T03:03:13.558Z,145.74
2023-04-18T03:04:13.842Z,144.85
2023-04-18T03:05:13.671Z,147.84
2023-04-18T03:06:59.274Z,25.00
2023-04-18T03:07:59.230Z,25.00
2023-04-18T03:08:59.221Z,25.00
2023-04-18T03:09:59.230Z,25.00
2023-04-18T03:10:59.230Z,25.00
2023-04-18T03:11:59.183Z,26.59
2023-04-18T03:12:59.232Z,27.60
2023-04-18T03:13:59.231Z,25.00
2023-04-18T03:14:59.182Z,25.00
2023-04-18T03:15:59.271Z,31.38
2023-04-18T03:16:59.164Z,27.90
2023-04-18T03:17:59.226Z,28.54
2023-04-18T03:18:59.187Z,28.84
2023-04-18T03:19:59.158Z,25.00
2023-04-18T03:20:59.175Z,28.11
2023-04-18T03:21:59.174Z,26.34
2023-04-18T03:22:59.175Z,27.20
2023-04-18T03:23:59.148Z,28.54
2023-04-18T03:24:59.162Z,27.87
2023-04-18T03:25:59.158Z,28.00
2023-04-18T03:26:59.101Z,30.43
2023-04-18T03:27:59.132Z,25.00
2023-04-18T03:28:59.122Z,28.11
2023-04-18T03:29:59.079Z,28.55
2023-04-18T03:30:59.107Z,27.24
2023-04-18T03:31:59.109Z,28.47
2023-04-18T03:32:59.146Z,28.09
2023-04-18T03:33:59.069Z,25.20
2023-04-18T03:34:59.088Z,28.44
2023-04-18T03:35:59.162Z,28.49
2023-04-18T03:36:59.242Z,29.90
2023-04-18T03:37:59.274Z,27.97
2023-04-18T03:38:59.351Z,28.40
2023-04-18T03:39:59.394Z,30.49
2023-04-18T03:40:59.465Z,29.91
2023-04-18T03:41:59.539Z,29.18
2023-04-18T03:42:59.581Z,28.85
2023-04-18T03:43:59.616Z,29.70
2023-04-18T03:44:59.690Z,25.87
2023-04-18T03:45:59.768Z,28.33
2023-04-18T03:46:59.813Z,29.87
2023-04-18T03:47:59.861Z,30.60
2023-04-18T03:48:59.923Z,30.60
2023-04-18T03:50:00.038Z,30.94
2023-04-18T03:51:00.065Z,29.85
2023-04-18T03:52:00.117Z,31.25
2023-04-18T03:53:00.164Z,29.36
2023-04-18T03:54:00.231Z,29.20
2023-04-18T03:55:00.316Z,30.37
2023-04-18T03:56:00.344Z,28.19
2023-04-18T03:57:00.451Z,28.54
2023-04-18T03:58:00.459Z,29.30
2023-04-18T03:59:00.647Z,34.34
2023-04-18T04:00:00.584Z,27.86
2023-04-18T04:01:00.631Z,28.02
2023-04-18T04:02:00.768Z,30.88
2023-04-18T04:03:00.907Z,29.74
2023-04-18T04:04:00.855Z,26.88
2023-04-18T04:05:00.906Z,25.00
2023-04-18T04:06:00.903Z,27.07
2023-04-18T04:07:00.980Z,26.46
2023-04-18T04:08:01.006Z,25.02
2023-04-18T04:09:01.122Z,25.25
2023-04-18T04:10:01.165Z,27.60
2023-04-18T04:11:01.180Z,25.68
2023-04-18T04:12:01.287Z,25.51
2023-04-18T04:13:01.348Z,27.02
2023-04-18T04:14:01.350Z,28.31
2023-04-18T04:15:01.393Z,27.93
2023-04-18T04:16:01.594Z,25.75
2023-04-18T04:17:01.624Z,27.23
2023-04-18T04:18:01.697Z,25.56
2023-04-18T04:19:01.645Z,26.23
2023-04-18T04:20:01.771Z,25.74
2023-04-18T04:21:01.756Z,26.24
2023-04-18T04:22:01.792Z,25.00
2023-04-18T04:23:01.843Z,26.43
2023-04-18T04:24:01.908Z,25.76
2023-04-18T04:25:02.016Z,29.51
2023-04-18T04:26:02.034Z,28.59
2023-04-18T04:27:02.112Z,25.63
2023-04-18T04:28:02.155Z,26.78
2023-04-18T04:29:02.202Z,30.46
2023-04-18T04:30:02.265Z,24.68
2023-04-18T04:31:02.327Z,26.21
2023-04-18T04:32:02.478Z,29.66
2023-04-18T04:33:02.446Z,29.36
2023-04-18T04:34:02.505Z,31.13
2023-04-18T04:35:02.590Z,30.56
2023-04-18T04:36:02.569Z,29.96
2023-04-18T04:37:02.665Z,33.79
2023-04-18T04:38:02.716Z,38.59
2023-04-18T04:39:02.765Z,39.60
2023-04-18T04:40:02.857Z,39.42
2023-04-18T04:41:02.875Z,38.66
2023-04-18T04:42:02.924Z,38.09
2023-04-18T04:43:03.030Z,36.35
2023-04-18T04:44:03.033Z,38.39
2023-04-18T04:45:03.202Z,40.33
2023-04-18T04:46:03.161Z,40.32
2023-04-18T04:47:03.182Z,40.32
2023-04-18T04:48:03.255Z,38.81
2023-04-18T04:49:03.277Z,42.85
2023-04-18T04:50:03.326Z,42.33
2023-04-18T04:51:03.381Z,43.15
2023-04-18T04:52:03.439Z,43.42
2023-04-18T04:53:03.487Z,40.88
2023-04-18T04:54:03.572Z,41.16
2023-04-18T04:55:03.603Z,41.61
2023-04-18T04:56:03.650Z,42.63
2023-04-18T04:57:03.684Z,43.28
2023-04-18T04:58:03.723Z,42.68
2023-04-18T04:59:03.777Z,45.11
2023-04-18T05:00:03.856Z,43.14
2023-04-18T05:01:03.926Z,45.00
2023-04-18T05:02:04.041Z,44.93
2023-04-18T05:03:04.113Z,43.95
2023-04-18T05:04:04.213Z,44.00
2023-04-18T05:05:04.134Z,42.19
2023-04-18T05:06:04.193Z,41.05
2023-04-18T05:07:04.315Z,43.36
2023-04-18T05:08:04.342Z,42.44
2023-04-18T05:09:04.414Z,43.39
2023-04-18T05:10:04.453Z,42.49
2023-04-18T05:11:04.542Z,43.76
2023-04-18T05:12:04.588Z,44.64
2023-04-18T05:13:04.591Z,42.25
2023-04-18T05:14:04.675Z,46.49
2023-04-18T05:15:04.731Z,44.60
2023-04-18T05:16:04.790Z,45.96
2023-04-18T05:17:04.914Z,46.29
2023-04-18T05:18:04.958Z,47.16
2023-04-18T05:19:04.940Z,44.83
2023-04-18T05:20:05.015Z,42.60
2023-04-18T05:21:05.074Z,40.80
2023-04-18T05:22:05.124Z,40.78
2023-04-18T05:23:05.280Z,41.76
2023-04-18T05:24:05.182Z,41.93
2023-04-18T05:25:05.298Z,40.33
2023-04-18T05:26:05.313Z,41.25
2023-04-18T05:27:05.370Z,40.69
2023-04-18T05:28:05.409Z,40.93
2023-04-18T05:29:05.469Z,39.37
2023-04-18T05:30:05.526Z,40.21
2023-04-18T05:31:05.685Z,38.55
2023-04-18T05:32:05.602Z,37.74
2023-04-18T05:33:05.708Z,36.31
2023-04-18T05:34:05.720Z,40.52
2023-04-18T05:35:05.784Z,42.11
2023-04-18T05:36:05.830Z,41.72
2023-04-18T05:37:05.887Z,43.90
2023-04-18T05:38:05.952Z,43.77
2023-04-18T05:39:06.007Z,39.73
2023-04-18T05:40:06.109Z,42.21
2023-04-18T05:41:06.071Z,45.03
2023-04-18T05:42:06.134Z,43.26
2023-04-18T05:43:06.184Z,43.20
2023-04-18T05:44:07.070Z,44.21
2023-04-18T05:45:06.319Z,48.40
2023-04-18T05:46:06.378Z,45.59
2023-04-18T05:47:06.666Z,48.11
2023-04-18T05:48:06.465Z,50.42
2023-04-18T05:49:06.559Z,50.44
2023-04-18T05:50:06.585Z,53.70
2023-04-18T05:51:06.691Z,50.41
2023-04-18T05:52:06.704Z,56.51
2023-04-18T05:53:06.775Z,58.34
2023-04-18T05:54:06.821Z,58.80
2023-04-18T05:55:06.892Z,62.93
2023-04-18T05:56:06.976Z,65.23
2023-04-18T05:57:07.009Z,69.03
2023-04-18T05:58:07.105Z,73.59
2023-04-18T05:59:07.119Z,74.95
2023-04-18T06:00:07.165Z,75.70
2023-04-18T06:01:07.243Z,80.24
2023-04-18T06:02:07.290Z,79.03
2023-04-18T06:03:10.085Z,83.30
2023-04-18T06:04:07.464Z,84.13
2023-04-18T06:05:07.459Z,86.02
2023-04-18T06:06:07.308Z,86.73
2023-04-18T06:07:07.340Z,86.63
2023-04-18T06:08:07.338Z,89.58
2023-04-18T06:09:07.284Z,83.69
2023-04-18T06:10:07.312Z,85.08
2023-04-18T06:11:07.292Z,86.83
2023-04-18T06:12:07.316Z,87.03
2023-04-18T06:13:07.253Z,88.30
2023-04-18T06:14:07.267Z,89.41
2023-04-18T06:15:07.220Z,88.23
2023-04-18T06:16:07.276Z,87.20
2023-04-18T06:17:07.258Z,86.10
2023-04-18T06:18:07.306Z,87.92
2023-04-18T06:19:07.236Z,85.76
2023-04-18T06:20:07.209Z,87.67
2023-04-18T06:21:07.230Z,84.24
2023-04-18T06:22:07.225Z,88.65
2023-04-18T06:23:07.175Z,85.92
2023-04-18T06:24:07.234Z,85.71
2023-04-18T06:25:07.185Z,87.53
2023-04-18T06:26:07.212Z,86.87
2023-04-18T06:27:09.370Z,88.47
2023-04-18T06:28:08.181Z,88.69
2023-04-18T06:29:07.207Z,89.02
2023-04-18T06:30:07.161Z,89.63
2023-04-18T06:31:07.583Z,89.41
2023-04-18T06:32:07.187Z,88.21
2023-04-18T06:33:07.588Z,85.84
2023-04-18T06:34:07.151Z,85.77
2023-04-18T06:35:07.569Z,66.53
2023-04-18T06:36:07.136Z,57.55
2023-04-18T06:37:07.111Z,56.14
2023-04-18T06:38:07.130Z,40.73
2023-04-18T06:39:07.137Z,34.66
2023-04-18T06:40:07.080Z,34.21
2023-04-18T06:41:07.562Z,30.70
2023-04-18T06:42:07.154Z,31.20
2023-04-18T06:43:07.178Z,31.04
2023-04-18T06:44:07.221Z,42.29
2023-04-18T06:45:07.265Z,40.98
2023-04-18T06:46:07.352Z,33.00
2023-04-18T06:47:07.336Z,27.17
2023-04-18T06:48:07.514Z,27.92
2023-04-18T06:49:07.360Z,25.93
2023-04-18T06:50:07.360Z,25.56
2023-04-18T06:51:07.428Z,28.21
2023-04-18T06:52:07.472Z,27.12
2023-04-18T06:53:07.532Z,26.39
2023-04-18T06:54:07.537Z,27.30
2023-04-18T06:55:07.538Z,26.99
2023-04-18T06:56:07.554Z,27.60
2023-04-18T06:57:08.594Z,35.06
2023-04-18T06:58:07.558Z,32.38
2023-04-18T06:59:07.571Z,36.23
2023-04-18T07:00:07.657Z,31.44
2023-04-18T07:01:07.743Z,37.21
2023-04-18T07:02:07.803Z,37.71
2023-04-18T07:03:09.508Z,38.97
2023-04-18T07:04:07.836Z,41.08
2023-04-18T07:05:07.816Z,42.18
2023-04-18T07:06:07.729Z,40.08
2023-04-18T07:07:07.779Z,41.90
2023-04-18T07:08:07.773Z,42.35
2023-04-18T07:09:07.757Z,42.57
2023-04-18T07:10:07.751Z,45.95
2023-04-18T07:11:07.747Z,47.51
2023-04-18T07:12:07.720Z,47.14
2023-04-18T07:13:07.707Z,49.11
2023-04-18T07:14:07.715Z,47.85
2023-04-18T07:15:07.680Z,45.97
2023-04-18T07:16:07.681Z,47.92
2023-04-18T07:17:07.756Z,49.02
2023-04-18T07:18:07.771Z,50.98
2023-04-18T07:19:07.653Z,52.21
2023-04-18T07:20:07.661Z,55.90
2023-04-18T07:21:08.028Z,54.59
2023-04-18T07:22:07.664Z,53.56
2023-04-18T07:23:07.692Z,53.92
2023-04-18T07:24:07.737Z,54.64
2023-04-18T07:25:07.641Z,54.58
2023-04-18T07:26:07.645Z,53.41
2023-04-18T07:27:07.614Z,55.73
2023-04-18T07:28:07.599Z,57.06
2023-04-18T07:29:07.608Z,62.53
2023-04-18T07:30:08.084Z,61.17
2023-04-18T07:31:07.603Z,65.76
2023-04-18T07:32:08.647Z,64.54
2023-04-18T07:33:07.645Z,67.46
2023-04-18T07:34:07.602Z,67.41
2023-04-18T07:35:08.130Z,68.32
2023-04-18T07:36:07.565Z,72.05
2023-04-18T07:37:07.572Z,75.49
2023-04-18T07:38:07.580Z,77.20
2023-04-18T07:39:07.605Z,79.11
2023-04-18T07:40:07.559Z,79.63
2023-04-18T07:41:07.537Z,84.57
2023-04-18T07:42:07.522Z,81.80
2023-04-18T07:43:07.549Z,85.74
2023-04-18T07:44:07.535Z,91.07
2023-04-18T07:45:07.523Z,97.41
2023-04-18T07:46:07.512Z,112.14
2023-04-18T07:47:07.483Z,115.69
2023-04-18T07:48:07.607Z,121.53
2023-04-18T07:49:07.498Z,121.28
2023-04-18T07:50:07.560Z,119.23
2023-04-18T07:51:07.461Z,118.23
2023-04-18T07:52:07.448Z,118.39
2023-04-18T07:53:07.481Z,121.39
2023-04-18T07:54:07.487Z,113.32
2023-04-18T07:55:07.585Z,115.63
2023-04-18T07:56:07.453Z,113.45
2023-04-18T07:57:07.456Z,110.60
2023-04-18T07:58:07.469Z,113.41
2023-04-18T07:59:07.542Z,115.70
2023-04-18T08:00:07.596Z,112.89
2023-04-18T08:01:07.649Z,109.83
2023-04-18T08:02:07.777Z,106.15
2023-04-18T08:03:07.945Z,101.70
2023-04-18T08:04:07.964Z,105.69
2023-04-18T08:05:08.053Z,105.90
2023-04-18T08:06:07.763Z,109.32
2023-04-18T08:07:07.785Z,116.36
2023-04-18T08:08:07.814Z,110.91
2023-04-18T08:09:07.831Z,111.19
2023-04-18T08:10:07.909Z,109.15
2023-04-18T08:11:07.954Z,111.72
2023-04-18T08:12:07.986Z,115.68
2023-04-18T08:13:07.965Z,124.29
2023-04-18T08:14:08.032Z,122.14
2023-04-18T08:15:08.080Z,125.56
2023-04-18T08:16:08.157Z,124.79
2023-04-18T08:17:08.151Z,121.54
2023-04-18T08:18:08.203Z,122.79
2023-04-18T08:19:08.205Z,123.50
2023-04-18T08:20:08.314Z,120.44
2023-04-18T08:21:08.247Z,118.00
2023-04-18T08:22:08.291Z,123.46
2023-04-18T08:23:11.280Z,124.38
2023-04-18T08:24:08.351Z,124.60
2023-04-18T08:25:08.576Z,119.07
2023-04-18T08:26:08.319Z,116.51
2023-04-18T08:27:08.322Z,118.34
2023-04-18T08:28:08.332Z,105.53
2023-04-18T08:29:08.274Z,131.37
2023-04-18T08:30:08.285Z,130.02
2023-04-18T08:31:08.413Z,134.42
2023-04-18T08:32:08.325Z,116.84
2023-04-18T08:33:08.274Z,103.65
2023-04-18T08:34:08.271Z,83.36
2023-04-18T08:35:08.274Z,87.86
2023-04-18T08:36:08.244Z,69.44
2023-04-18T08:37:08.225Z,52.10
2023-04-18T08:38:08.357Z,52.40
2023-04-18T08:39:08.252Z,42.75
2023-04-18T08:40:08.216Z,39.84
2023-04-18T08:41:08.207Z,25.29
2023-04-18T08:42:08.218Z,28.58
2023-04-18T08:43:08.218Z,28.31
2023-04-18T08:44:08.178Z,31.42
2023-04-18T08:45:08.239Z,36.06
2023-04-18T08:46:08.256Z,21.60
2023-04-18T08:47:08.297Z,36.65
2023-04-18T08:48:08.376Z,33.51
2023-04-18T08:49:10.688Z,36.32
2023-04-18T08:50:08.352Z,43.53
2023-04-18T08:51:08.447Z,48.46
2023-04-18T08:52:08.382Z,58.34
2023-04-18T08:53:08.350Z,66.26
2023-04-18T08:54:08.367Z,74.30
2023-04-18T08:55:08.360Z,65.68
2023-04-18T08:56:08.304Z,75.63
2023-04-18T08:57:08.324Z,67.47
2023-04-18T08:58:08.329Z,79.17
2023-04-18T08:59:08.297Z,76.74
2023-04-18T09:00:08.315Z,81.52
2023-04-18T09:01:08.326Z,91.53
2023-04-18T09:02:08.322Z,96.55
2023-04-18T09:03:08.324Z,96.27
2023-04-18T09:04:08.279Z,98.14
2023-04-18T09:05:08.217Z,102.95
2023-04-18T09:06:08.259Z,100.59
2023-04-18T09:07:08.230Z,109.67
2023-04-18T09:08:08.237Z,118.25
2023-04-18T09:09:08.243Z,125.74
2023-04-18T09:10:08.198Z,130.90
2023-04-18T09:11:08.193Z,123.20
2023-04-18T09:12:08.210Z,106.50
2023-04-18T09:13:08.213Z,110.39
2023-04-18T09:14:08.240Z,113.48
2023-04-18T09:15:08.252Z,123.08
2023-04-18T09:16:08.249Z,119.18
2023-04-18T09:17:08.195Z,109.12
2023-04-18T09:18:08.184Z,116.09
2023-04-18T09:19:08.156Z,118.88
2023-04-18T09:20:08.161Z,116.62
2023-04-18T09:21:08.197Z,125.25
2023-04-18T09:22:08.173Z,141.15
2023-04-18T09:23:08.145Z,147.25
2023-04-18T09:24:08.159Z,153.62
2023-04-18T09:25:08.157Z,156.72
2023-04-18T09:26:08.206Z,158.51
2023-04-18T09:27:08.105Z,158.61
2023-04-18T09:28:08.062Z,165.84
2023-04-18T09:29:08.123Z,195.57
2023-04-18T09:30:08.089Z,183.39
2023-04-18T09:31:08.152Z,139.23
2023-04-18T09:32:08.095Z,79.99
2023-04-18T09:33:08.153Z,45.98
2023-04-18T09:34:08.069Z,11.52
2023-04-18T09:35:08.273Z,0.00
2023-04-18T09:36:08.034Z,14.95
2023-04-18T09:37:08.173Z,18.45
2023-04-18T09:38:08.033Z,27.23
2023-04-18T09:39:08.055Z,22.48
2023-04-18T09:40:08.049Z,47.08
2023-04-18T09:41:08.101Z,32.09
2023-04-18T09:42:08.034Z,36.04
2023-04-18T09:43:08.053Z,50.32
2023-04-18T09:44:08.033Z,69.51
2023-04-18T09:45:08.089Z,62.79
2023-04-18T09:46:08.458Z,51.63
2023-04-18T09:47:07.995Z,59.36
2023-04-18T09:48:08.291Z,63.69
2023-04-18T09:49:09.660Z,70.26
2023-04-18T09:50:08.122Z,72.24
2023-04-18T09:51:08.365Z,99.83
2023-04-18T09:52:08.041Z,106.61
2023-04-18T09:53:08.123Z,119.87
2023-04-18T09:54:08.006Z,134.08
2023-04-18T09:55:08.013Z,123.46
2023-04-18T09:56:07.943Z,143.30
2023-04-18T09:57:07.890Z,157.32
2023-04-18T09:58:07.913Z,133.25
2023-04-18T09:59:07.927Z,166.45
2023-04-18T10:00:07.917Z,173.74
2023-04-18T10:01:07.881Z,167.43
2023-04-18T10:02:08.152Z,183.77
2023-04-18T10:03:08.027Z,187.26
2023-04-18T10:04:07.971Z,189.21
2023-04-18T10:05:07.881Z,182.24
2023-04-18T10:06:07.862Z,188.10
2023-04-18T10:07:07.882Z,195.54
2023-04-18T10:08:07.870Z,214.41
2023-04-18T10:09:07.828Z,218.66
2023-04-18T10:10:07.838Z,228.86
2023-04-18T10:11:07.840Z,216.27
2023-04-18T10:12:07.835Z,215.90
2023-04-18T10:13:07.857Z,217.84
2023-04-18T10:14:07.866Z,232.46
2023-04-18T10:15:07.771Z,224.69
2023-04-18T10:16:08.160Z,214.13
2023-04-18T10:17:07.791Z,212.05
2023-04-18T10:18:07.783Z,185.63
2023-04-18T10:19:07.734Z,186.88
2023-04-18T10:20:07.754Z,185.81
2023-04-18T10:21:07.766Z,192.42
2023-04-18T10:22:07.739Z,196.46
2023-04-18T10:23:07.767Z,197.38
2023-04-18T10:24:07.745Z,185.58
2023-04-18T10:25:07.738Z,184.31
2023-04-18T10:26:07.795Z,175.98
2023-04-18T10:27:09.028Z,181.98
2023-04-18T10:28:07.723Z,185.97
2023-04-18T10:29:07.706Z,172.07
2023-04-18T10:30:08.990Z,135.74
2023-04-18T10:31:07.721Z,128.28
2023-04-18T10:32:07.842Z,147.49
2023-04-18T10:33:10.564Z,159.59
2023-04-18T10:34:08.673Z,158.36
2023-04-18T10:35:07.673Z,159.79
2023-04-18T10:36:07.654Z,152.39
2023-04-18T10:37:07.681Z,159.16
2023-04-18T10:38:07.654Z,164.79
2023-04-18T10:39:07.629Z,162.06
2023-04-18T10:40:07.645Z,158.63
2023-04-18T10:41:07.599Z,132.78
2023-04-18T10:42:07.658Z,113.79
2023-04-18T10:43:07.609Z,107.85
2023-04-18T10:44:08.495Z,102.91
2023-04-18T10:45:07.621Z,92.94
2023-04-18T10:46:14.257Z,80.33
2023-04-18T10:47:08.656Z,80.07
2023-04-18T10:48:07.685Z,79.15
2023-04-18T10:49:07.585Z,77.98
2023-04-18T10:50:07.603Z,73.01
2023-04-18T10:51:07.566Z,102.31
2023-04-18T10:52:07.549Z,101.59
2023-04-18T10:53:07.592Z,72.39
2023-04-18T10:54:07.562Z,94.00
2023-04-18T10:55:07.550Z,93.98
2023-04-18T10:56:07.530Z,107.07
2023-04-18T10:57:07.625Z,105.13
2023-04-18T10:58:07.497Z,86.10
2023-04-18T10:59:07.548Z,78.15
2023-04-18T11:00:07.519Z,67.24
2023-04-18T11:01:07.518Z,69.29
2023-04-18T11:02:07.503Z,73.17
2023-04-18T11:03:07.594Z,70.23
2023-04-18T11:04:07.530Z,97.84
2023-04-18T11:05:07.495Z,61.16
2023-04-18T11:06:07.445Z,79.45
2023-04-18T11:07:07.454Z,71.17
2023-04-18T11:08:07.472Z,46.30
2023-04-18T11:09:07.467Z,49.57
2023-04-18T11:10:07.440Z,63.04
2023-04-18T11:11:07.439Z,53.36
2023-04-18T11:12:07.438Z,81.77
2023-04-18T11:13:07.394Z,92.57
2023-04-18T11:14:07.415Z,85.20
2023-04-18T11:15:07.445Z,74.43
2023-04-18T11:16:07.408Z,91.68
2023-04-18T11:17:07.440Z,99.48
2023-04-18T11:18:07.405Z,105.51
2023-04-18T11:19:07.390Z,119.52
2023-04-18T11:20:07.634Z,137.83
2023-04-18T11:21:07.367Z,124.43
2023-04-18T11:22:07.405Z,126.66
2023-04-18T11:23:07.363Z,117.12
2023-04-18T11:24:08.172Z,110.67
2023-04-18T11:25:07.687Z,144.38
2023-04-18T11:26:07.384Z,139.64
2023-04-18T11:27:07.389Z,120.68
2023-04-18T11:28:07.396Z,103.35
2023-04-18T11:29:07.425Z,133.85
2023-04-18T11:30:07.489Z,116.28
2023-04-18T11:31:07.498Z,115.64
2023-04-18T11:32:07.650Z,90.81
2023-04-18T11:33:07.754Z,74.48
2023-04-18T11:34:07.583Z,88.27
2023-04-18T11:35:07.665Z,75.57
2023-04-18T11:36:07.668Z,72.83
2023-04-18T11:37:07.687Z,65.86
2023-04-18T11:38:07.722Z,69.15
2023-04-18T11:39:07.779Z,66.61
2023-04-18T11:40:07.783Z,59.18
2023-04-18T11:41:07.846Z,61.62
2023-04-18T11:42:07.889Z,56.47
2023-04-18T11:43:07.959Z,55.64
2023-04-18T11:44:07.960Z,48.59
2023-04-18T11:45:08.024Z,39.54
2023-04-18T11:46:08.090Z,34.70
2023-04-18T11:47:08.131Z,30.61
2023-04-18T11:48:08.229Z,35.61
2023-04-18T11:49:08.241Z,30.60
2023-04-18T11:50:08.274Z,23.26
2023-04-18T11:51:08.280Z,36.67
2023-04-18T11:52:08.405Z,41.05
2023-04-18T11:53:08.427Z,48.61
2023-04-18T11:54:08.502Z,37.18
2023-04-18T11:55:08.553Z,42.29
2023-04-18T11:56:08.565Z,35.70
2023-04-18T11:57:08.663Z,23.73
2023-04-18T11:58:08.673Z,29.34
2023-04-18T11:59:08.746Z,30.17
2023-04-18T12:00:08.760Z,25.00
2023-04-18T12:01:08.844Z,35.06
2023-04-18T12:02:16.164Z,42.35
2023-04-18T12:03:11.795Z,27.99
2023-04-18T12:04:09.219Z,20.10
2023-04-18T12:05:09.075Z,5.75
2023-04-18T12:06:08.933Z,16.40
2023-04-18T12:07:08.847Z,10.85
2023-04-18T12:08:08.828Z,6.09
2023-04-18T12:09:08.833Z,28.54
2023-04-18T12:10:08.867Z,37.55
2023-04-18T12:11:08.829Z,50.66
2023-04-18T12:12:08.841Z,74.77
2023-04-18T12:13:08.835Z,94.46
2023-04-18T12:14:08.814Z,109.22
2023-04-18T12:15:08.763Z,122.57
2023-04-18T12:16:08.770Z,126.03
2023-04-18T12:17:08.767Z,139.51
2023-04-18T12:18:08.969Z,145.62
2023-04-18T12:19:08.756Z,162.11
2023-04-18T12:20:08.814Z,163.11
2023-04-18T12:21:08.846Z,178.67
2023-04-18T12:22:08.867Z,173.13
2023-04-18T12:23:08.903Z,170.21
2023-04-18T12:24:08.991Z,169.22
2023-04-18T12:25:09.041Z,169.27
2023-04-18T12:26:09.072Z,178.18
2023-04-18T12:27:09.191Z,173.87
2023-04-18T12:28:09.124Z,164.85
2023-04-18T12:29:09.158Z,169.65
2023-04-18T12:30:09.317Z,178.69
2023-04-18T12:31:09.260Z,195.41
2023-04-18T12:32:09.305Z,190.90
2023-04-18T12:33:09.346Z,186.67
2023-04-18T12:34:09.355Z,190.65
2023-04-18T12:35:09.442Z,201.72
2023-04-18T12:36:09.605Z,202.03
2023-04-18T12:37:09.498Z,207.57
2023-04-18T12:38:09.517Z,202.13
2023-04-18T12:39:09.563Z,203.36
2023-04-18T12:40:09.590Z,199.54
2023-04-18T12:41:09.639Z,205.16
2023-04-18T12:42:09.705Z,208.89